createdAt,value
2023-02-22T00:02:27.112Z,9.00
2023-02-22T00:04:56.006Z,9.00
2023-02-22T00:07:29.873Z,9.10
2023-02-22T00:10:01.022Z,9.10
2023-02-22T00:12:29.846Z,9.20
2023-02-22T00:14:58.163Z,9.20
2023-02-22T00:17:30.706Z,9.20
2023-02-22T00:19:59.120Z,9.20
2023-02-22T00:22:27.449Z,9.30
2023-02-22T00:24:55.749Z,9.30
2023-02-22T00:27:24.110Z,9.30
2023-02-22T00:29:52.394Z,9.30
2023-02-22T00:32:20.789Z,9.30
2023-02-22T00:34:53.334Z,9.40
2023-02-22T00:37:31.766Z,9.40
2023-02-22T00:40:00.142Z,9.40
2023-02-22T00:42:28.668Z,9.40
2023-02-22T00:44:56.984Z,9.50
2023-02-22T00:47:26.452Z,9.50
2023-02-22T00:49:54.838Z,9.50
2023-02-22T00:52:23.309Z,9.50
2023-02-22T00:54:52.976Z,9.40
2023-02-22T00:57:21.745Z,9.40
2023-02-22T00:59:50.108Z,9.40
2023-02-22T01:02:18.985Z,9.40
2023-02-22T01:04:48.955Z,9.40
2023-02-22T01:07:17.557Z,9.30
2023-02-22T01:09:45.980Z,9.30
2023-02-22T01:12:16.144Z,9.30
2023-02-22T01:14:44.568Z,9.30
2023-02-22T01:17:12.926Z,9.20
2023-02-22T01:19:42.585Z,9.20
2023-02-22T01:22:11.186Z,9.20
2023-02-22T01:24:39.533Z,9.20
2023-02-22T01:27:07.936Z,9.20
2023-02-22T01:29:39.250Z,9.10
2023-02-22T01:32:08.568Z,9.10
2023-02-22T01:34:36.996Z,9.10
2023-02-22T01:37:06.529Z,9.10
2023-02-22T01:39:34.986Z,9.10
2023-02-22T01:42:03.472Z,9.10
2023-02-22T01:44:34.311Z,9.10
2023-02-22T01:47:05.833Z,9.00
2023-02-22T01:49:39.551Z,9.10
2023-02-22T01:52:10.660Z,9.10
2023-02-22T01:54:43.182Z,9.10
2023-02-22T01:57:17.302Z,9.10
2023-02-22T01:59:49.770Z,9.10
2023-02-22T02:02:21.920Z,9.10
2023-02-22T02:04:50.804Z,9.10
2023-02-22T02:07:21.230Z,9.10
2023-02-22T02:09:57.778Z,9.10
2023-02-22T02:12:28.960Z,9.10
2023-02-22T02:15:18.862Z,9.10
2023-02-22T02:17:49.761Z,9.10
2023-02-22T02:20:25.265Z,9.10
2023-02-22T02:23:01.001Z,9.10
2023-02-22T02:26:03.930Z,9.10
2023-02-22T02:29:12.726Z,9.20
2023-02-22T02:32:07.395Z,9.10
2023-02-22T02:34:42.199Z,9.10
2023-02-22T02:37:17.400Z,9.10
2023-02-22T02:39:54.430Z,9.00
2023-02-22T02:42:27.155Z,9.10
2023-02-22T02:45:02.696Z,9.00
2023-02-22T02:47:38.163Z,9.00
2023-02-22T02:50:10.587Z,9.00
2023-02-22T02:52:41.850Z,9.00
2023-02-22T02:55:12.488Z,9.00
2023-02-22T02:57:43.168Z,8.90
2023-02-22T03:00:22.720Z,8.90
2023-02-22T03:03:06.892Z,8.90
2023-02-22T03:06:13.679Z,8.90
2023-02-22T03:08:45.924Z,8.80
2023-02-22T03:11:18.982Z,8.80
2023-02-22T03:13:56.806Z,8.80
2023-02-22T03:16:35.261Z,8.80
2023-02-22T03:19:10.685Z,8.80
2023-02-22T03:21:47.014Z,8.80
2023-02-22T03:24:23.403Z,8.80
2023-02-22T03:26:58.125Z,8.80
2023-02-22T03:29:29.329Z,8.80
2023-02-22T03:32:01.809Z,8.70
2023-02-22T03:34:41.874Z,8.70
2023-02-22T03:37:17.364Z,8.70
2023-02-22T03:39:50.506Z,8.70
2023-02-22T03:42:23.629Z,8.70
2023-02-22T03:44:54.907Z,8.70
2023-02-22T03:47:31.756Z,8.70
2023-02-22T03:50:07.027Z,8.70
2023-02-22T03:52:37.679Z,8.70
2023-02-22T03:55:13.375Z,8.70
2023-02-22T03:57:44.822Z,8.70
2023-02-22T04:00:18.131Z,8.60
2023-02-22T04:02:47.340Z,8.60
2023-02-22T04:05:22.226Z,8.60
2023-02-22T04:07:50.686Z,8.60
2023-02-22T04:10:19.174Z,8.50
2023-02-22T04:12:47.660Z,8.50
2023-02-22T04:15:18.874Z,8.40
2023-02-22T04:17:47.384Z,8.40
2023-02-22T04:20:20.089Z,8.40
2023-02-22T04:23:02.708Z,8.40
2023-02-22T04:25:32.070Z,8.40
2023-02-22T04:28:12.225Z,8.40
2023-02-22T04:30:52.667Z,8.40
2023-02-22T04:33:21.701Z,8.40
2023-02-22T04:35:51.716Z,8.30
2023-02-22T04:38:21.746Z,8.30
2023-02-22T04:40:50.205Z,8.30
2023-02-22T04:43:18.720Z,8.30
2023-02-22T04:45:47.995Z,8.30
2023-02-22T04:48:16.391Z,8.20
2023-02-22T04:50:44.786Z,8.20
2023-02-22T04:53:13.159Z,8.20
2023-02-22T04:55:42.867Z,8.10
2023-02-22T04:58:11.364Z,8.10
2023-02-22T05:00:39.837Z,8.00
2023-02-22T05:03:09.177Z,8.00
2023-02-22T05:05:37.576Z,8.00
2023-02-22T05:08:06.142Z,7.90
2023-02-22T05:10:34.468Z,7.90
2023-02-22T05:13:06.197Z,7.80
2023-02-22T05:15:34.721Z,7.70
2023-02-22T05:18:03.086Z,7.70
2023-02-22T05:20:33.956Z,7.60
2023-02-22T05:23:03.597Z,7.60
2023-02-22T05:25:32.137Z,7.50
2023-02-22T05:28:04.038Z,7.50
2023-02-22T05:30:35.000Z,7.40
2023-02-22T05:33:03.868Z,7.30
2023-02-22T05:35:32.380Z,7.30
2023-02-22T05:38:03.218Z,7.20
2023-02-22T05:40:32.814Z,7.10
2023-02-22T05:43:02.255Z,7.10
2023-02-22T05:45:32.069Z,7.00
2023-02-22T05:48:01.488Z,7.00
2023-02-22T05:50:30.348Z,6.90
2023-02-22T05:52:58.726Z,6.90
2023-02-22T05:55:27.268Z,6.90
2023-02-22T05:57:55.649Z,6.90
2023-02-22T06:00:26.487Z,7.10
2023-02-22T06:02:57.466Z,7.30
2023-02-22T06:05:25.905Z,7.60
2023-02-22T06:07:55.013Z,7.90
2023-02-22T06:10:23.432Z,8.40
2023-02-22T06:12:52.762Z,8.80
2023-02-22T06:15:22.967Z,9.30
2023-02-22T06:17:51.495Z,9.90
2023-02-22T06:20:24.200Z,10.40
2023-02-22T06:22:54.083Z,11.10
2023-02-22T06:25:25.098Z,11.70
2023-02-22T06:27:53.624Z,12.30
2023-02-22T06:30:24.103Z,13.00
2023-02-22T06:32:52.462Z,13.50
2023-02-22T06:35:23.131Z,14.00
2023-02-22T06:37:51.497Z,14.20
2023-02-22T06:40:20.241Z,14.20
2023-02-22T06:42:49.602Z,14.30
2023-02-22T06:45:19.228Z,14.40
2023-02-22T06:47:48.096Z,14.50
2023-02-22T06:50:24.034Z,14.50
2023-02-22T06:52:52.864Z,14.70
2023-02-22T06:55:23.100Z,15.00
2023-02-22T06:57:51.805Z,15.20
2023-02-22T07:00:22.192Z,15.20
2023-02-22T07:02:50.820Z,15.10
2023-02-22T07:05:21.984Z,15.00
2023-02-22T07:07:53.914Z,14.90
2023-02-22T07:10:26.364Z,14.70
2023-02-22T07:12:55.383Z,14.40
2023-02-22T07:15:25.766Z,14.20
2023-02-22T07:17:54.183Z,13.90
2023-02-22T07:20:24.634Z,13.70
2023-02-22T07:22:54.817Z,13.40
2023-02-22T07:25:24.877Z,13.20
2023-02-22T07:27:53.593Z,12.90
2023-02-22T07:30:26.100Z,12.70
2023-02-22T07:32:56.410Z,12.60
2023-02-22T07:35:29.469Z,12.50
2023-02-22T07:37:59.417Z,12.40
2023-02-22T07:40:28.515Z,12.30
2023-02-22T07:42:59.523Z,12.20
2023-02-22T07:45:30.099Z,12.20
2023-02-22T07:47:59.115Z,12.20
2023-02-22T07:50:31.303Z,12.20
2023-02-22T07:53:03.082Z,12.10
2023-02-22T07:55:33.467Z,12.20
2023-02-22T07:58:03.974Z,12.20
2023-02-22T08:00:34.131Z,12.20
2023-02-22T08:03:03.725Z,12.20
2023-02-22T08:05:33.040Z,12.30
2023-02-22T08:08:03.363Z,12.30
2023-02-22T08:10:32.271Z,12.30
2023-02-22T08:13:00.931Z,12.30
2023-02-22T08:15:31.491Z,12.40
2023-02-22T08:18:01.355Z,12.40
2023-02-22T08:20:31.096Z,12.40
2023-02-22T08:23:00.137Z,12.50
2023-02-22T08:25:31.058Z,12.50
2023-02-22T08:28:01.511Z,12.60
2023-02-22T08:30:32.314Z,12.60
2023-02-22T08:33:02.655Z,12.70
2023-02-22T08:35:32.920Z,12.90
2023-02-22T08:38:03.838Z,13.00
2023-02-22T08:40:36.515Z,13.20
2023-02-22T08:43:06.673Z,13.40
2023-02-22T08:45:35.288Z,13.60
2023-02-22T08:48:03.726Z,13.70
2023-02-22T08:50:35.612Z,13.90
2023-02-22T08:53:05.993Z,14.10
2023-02-22T08:55:37.980Z,14.20
2023-02-22T08:58:09.780Z,14.40
2023-02-22T09:00:39.944Z,14.50
2023-02-22T09:03:10.746Z,14.70
2023-02-22T09:05:39.144Z,14.80
2023-02-22T09:08:07.578Z,14.90
2023-02-22T09:10:37.355Z,15.00
2023-02-22T09:13:06.555Z,15.20
2023-02-22T09:15:36.965Z,15.20
2023-02-22T09:18:08.502Z,15.30
2023-02-22T09:20:37.349Z,15.40
2023-02-22T09:23:07.414Z,15.40
2023-02-22T09:25:39.056Z,15.50
2023-02-22T09:28:07.825Z,15.50
2023-02-22T09:30:37.635Z,15.50
2023-02-22T09:33:10.340Z,15.50
2023-02-22T09:35:42.597Z,15.50
2023-02-22T09:38:12.461Z,15.60
2023-02-22T09:40:46.712Z,15.60
2023-02-22T09:43:37.875Z,15.60
2023-02-22T09:46:23.094Z,15.70
2023-02-22T09:49:06.389Z,15.70
2023-02-22T09:51:43.034Z,15.70
2023-02-22T09:54:20.024Z,15.80
2023-02-22T09:56:54.191Z,15.80
2023-02-22T09:59:27.051Z,15.80
2023-02-22T10:02:03.279Z,15.90
2023-02-22T10:04:42.577Z,16.00
2023-02-22T10:07:19.788Z,16.00
2023-02-22T10:09:51.094Z,16.10
2023-02-22T10:12:29.600Z,16.20
2023-02-22T10:15:28.553Z,16.20
2023-02-22T10:18:12.196Z,16.30
2023-02-22T10:20:51.026Z,16.30
2023-02-22T10:23:26.801Z,16.30
2023-02-22T10:26:06.981Z,16.40
2023-02-22T10:28:41.241Z,16.40
2023-02-22T10:31:14.781Z,16.50
2023-02-22T10:33:48.978Z,16.50
2023-02-22T10:36:21.005Z,16.50
2023-02-22T10:38:55.465Z,16.50
2023-02-22T10:41:30.385Z,16.60
2023-02-22T10:44:00.683Z,16.70
2023-02-22T10:46:30.693Z,16.80
2023-02-22T10:49:03.775Z,16.90
2023-02-22T10:51:32.936Z,17.00
2023-02-22T10:54:24.205Z,17.10
2023-02-22T10:56:55.618Z,17.30
2023-02-22T10:59:35.587Z,17.50
2023-02-22T11:02:17.984Z,17.70
2023-02-22T11:04:50.010Z,17.90
2023-02-22T11:07:24.223Z,18.10
2023-02-22T11:09:55.610Z,18.40
2023-02-22T11:12:30.541Z,18.60
2023-02-22T11:15:27.052Z,18.90
2023-02-22T11:17:57.494Z,19.20
2023-02-22T11:20:29.005Z,19.30
2023-02-22T11:23:01.065Z,19.50
2023-02-22T11:25:34.142Z,19.60
2023-02-22T11:28:10.862Z,19.70
2023-02-22T11:30:40.752Z,19.70
2023-02-22T11:33:23.968Z,19.70
2023-02-22T11:35:55.250Z,19.70
2023-02-22T11:38:26.116Z,19.70
2023-02-22T11:41:15.029Z,19.70
2023-02-22T11:43:44.117Z,19.70
2023-02-22T11:46:18.986Z,19.70
2023-02-22T11:48:58.846Z,19.70
2023-02-22T11:51:46.502Z,19.80
2023-02-22T11:54:29.148Z,19.90
2023-02-22T11:57:08.749Z,19.90
2023-02-22T11:59:46.532Z,19.90
2023-02-22T12:02:31.580Z,19.90
2023-02-22T12:05:19.475Z,20.00
2023-02-22T12:07:59.054Z,20.00
2023-02-22T12:10:43.042Z,20.00
2023-02-22T12:13:27.223Z,20.10
2023-02-22T12:16:01.748Z,20.10
2023-02-22T12:18:38.993Z,20.10
2023-02-22T12:21:13.502Z,20.20
2023-02-22T12:23:46.812Z,20.30
2023-02-22T12:26:20.222Z,20.40
2023-02-22T12:28:59.386Z,20.50
2023-02-22T12:31:34.404Z,20.60
2023-02-22T12:34:12.009Z,20.60
2023-02-22T12:36:46.983Z,20.60
2023-02-22T12:39:29.256Z,20.60
2023-02-22T12:41:59.251Z,20.60
2023-02-22T12:44:31.749Z,20.60
2023-02-22T12:47:02.511Z,20.60
2023-02-22T12:49:39.427Z,20.50
2023-02-22T12:52:36.181Z,20.40
2023-02-22T12:55:12.197Z,20.30
2023-02-22T12:57:45.589Z,20.20
2023-02-22T13:00:20.334Z,20.10
2023-02-22T13:02:58.209Z,20.00
2023-02-22T13:05:30.802Z,19.80
2023-02-22T13:08:17.379Z,19.60
2023-02-22T13:11:04.475Z,19.50
2023-02-22T13:13:41.011Z,19.30
2023-02-22T13:16:23.314Z,19.20
2023-02-22T13:18:58.388Z,19.00
2023-02-22T13:21:37.425Z,18.70
2023-02-22T13:24:13.645Z,18.50
2023-02-22T13:26:50.417Z,18.30
2023-02-22T13:29:23.616Z,18.00
2023-02-22T13:32:05.072Z,17.80
2023-02-22T13:34:51.875Z,17.50
2023-02-22T13:37:42.801Z,17.30
2023-02-22T13:40:27.456Z,17.00
2023-02-22T13:43:15.843Z,16.90
2023-02-22T13:46:03.546Z,16.70
2023-02-22T13:49:02.610Z,16.50
2023-02-22T13:51:47.266Z,16.40
2023-02-22T13:54:28.326Z,16.30
2023-02-22T13:56:58.853Z,16.10
2023-02-22T13:59:30.937Z,16.00
2023-02-22T14:02:00.655Z,15.90
2023-02-22T14:04:46.732Z,15.90
2023-02-22T14:07:48.234Z,15.80
2023-02-22T14:10:53.107Z,15.80
2023-02-22T14:13:24.080Z,15.70
2023-02-22T14:16:22.547Z,15.60
2023-02-22T14:19:06.404Z,15.60
2023-02-22T14:21:36.351Z,15.40
2023-02-22T14:24:11.231Z,15.30
2023-02-22T14:26:40.903Z,15.30
2023-02-22T14:29:21.292Z,15.20
2023-02-22T14:32:13.162Z,15.20
2023-02-22T14:34:51.298Z,15.10
2023-02-22T14:37:25.032Z,15.00
2023-02-22T14:39:58.814Z,15.00
2023-02-22T14:42:33.110Z,14.90
2023-02-22T14:45:17.341Z,14.90
2023-02-22T14:47:51.124Z,14.80
2023-02-22T14:50:23.486Z,14.70
2023-02-22T14:53:02.139Z,14.70
2023-02-22T14:55:34.112Z,14.60
2023-02-22T14:58:09.764Z,14.50
2023-02-22T15:00:42.354Z,14.50
2023-02-22T15:03:21.006Z,14.40
2023-02-22T15:05:49.842Z,14.40
2023-02-22T15:08:28.150Z,14.40
2023-02-22T15:10:56.567Z,14.40
2023-02-22T15:13:27.107Z,14.50
2023-02-22T15:16:01.888Z,14.60
2023-02-22T15:18:35.893Z,14.80
2023-02-22T15:21:10.499Z,15.00
2023-02-22T15:23:50.012Z,15.20
2023-02-22T15:26:21.650Z,15.50
2023-02-22T15:28:54.444Z,15.70
2023-02-22T15:31:31.666Z,15.90
2023-02-22T15:34:11.834Z,16.00
2023-02-22T15:36:40.341Z,16.00
2023-02-22T15:39:21.198Z,15.90
2023-02-22T15:41:49.560Z,15.80
2023-02-22T15:44:23.802Z,15.60
2023-02-22T15:46:56.457Z,15.40
2023-02-22T15:49:25.972Z,15.20
2023-02-22T15:52:05.727Z,15.00
2023-02-22T15:54:44.522Z,14.90
2023-02-22T15:57:17.255Z,14.60
2023-02-22T15:59:49.210Z,14.50
2023-02-22T16:02:32.668Z,14.30
2023-02-22T16:05:05.169Z,14.20
2023-02-22T16:07:34.518Z,14.00
2023-02-22T16:10:09.490Z,13.90
2023-02-22T16:12:38.078Z,13.70
2023-02-22T16:15:17.615Z,13.60
2023-02-22T16:18:01.674Z,13.50
2023-02-22T16:20:36.266Z,13.40
2023-02-22T16:23:25.484Z,13.30
2023-02-22T16:26:14.103Z,13.20
2023-02-22T16:28:51.978Z,13.10
2023-02-22T16:31:22.492Z,13.00
2023-02-22T16:33:53.135Z,12.80
2023-02-22T16:36:24.828Z,12.80
2023-02-22T16:38:53.793Z,12.70
2023-02-22T16:41:22.239Z,12.60
2023-02-22T16:43:51.889Z,12.40
2023-02-22T16:46:21.161Z,12.30
2023-02-22T16:48:51.194Z,12.20
2023-02-22T16:51:22.713Z,12.10
2023-02-22T16:53:53.406Z,12.10
2023-02-22T16:56:26.681Z,12.00
2023-02-22T16:58:55.096Z,11.90
2023-02-22T17:01:24.532Z,11.80
2023-02-22T17:03:55.008Z,11.60
2023-02-22T17:06:23.342Z,11.60
2023-02-22T17:08:52.673Z,11.50
2023-02-22T17:11:21.413Z,11.40
2023-02-22T17:13:51.907Z,11.30
2023-02-22T17:16:20.781Z,11.20
2023-02-22T17:18:51.463Z,11.10
2023-02-22T17:21:21.262Z,11.00
2023-02-22T17:23:49.789Z,11.00
2023-02-22T17:26:18.945Z,10.90
2023-02-22T17:28:47.584Z,10.90
2023-02-22T17:31:22.746Z,10.80
2023-02-22T17:33:52.430Z,10.80
2023-02-22T17:36:23.650Z,10.70
2023-02-22T17:38:51.988Z,10.60
2023-02-22T17:41:20.461Z,10.60
2023-02-22T17:43:49.175Z,10.50
2023-02-22T17:46:19.965Z,10.50
2023-02-22T17:48:49.494Z,10.40
2023-02-22T17:51:17.960Z,10.30
2023-02-22T17:53:47.846Z,10.30
2023-02-22T17:56:18.996Z,10.20
2023-02-22T17:58:49.728Z,10.20
2023-02-22T18:01:24.681Z,10.10
2023-02-22T18:03:53.696Z,10.10
2023-02-22T18:06:25.487Z,10.00
2023-02-22T18:08:57.004Z,10.00
2023-02-22T18:11:26.854Z,9.90
2023-02-22T18:13:55.875Z,9.80
2023-02-22T18:16:25.842Z,9.80
2023-02-22T18:18:54.432Z,9.70
2023-02-22T18:21:23.546Z,9.70
2023-02-22T18:23:51.895Z,9.60
2023-02-22T18:26:23.464Z,9.60
2023-02-22T18:28:53.645Z,9.50
2023-02-22T18:31:23.720Z,9.50
2023-02-22T18:33:53.964Z,9.50
2023-02-22T18:36:23.921Z,9.50
2023-02-22T18:38:55.247Z,9.50
2023-02-22T18:41:26.522Z,9.50
2023-02-22T18:43:59.106Z,9.50
2023-02-22T18:46:30.256Z,9.50
2023-02-22T18:48:59.453Z,9.50
2023-02-22T18:51:28.629Z,9.50
2023-02-22T18:54:00.655Z,9.50
2023-02-22T18:56:31.474Z,9.60
2023-02-22T18:59:01.630Z,9.60
2023-02-22T19:01:31.265Z,9.60
2023-02-22T19:04:01.307Z,9.60
2023-02-22T19:06:29.718Z,9.60
2023-02-22T19:09:01.544Z,9.70
2023-02-22T19:11:31.417Z,9.70
2023-02-22T19:13:59.703Z,9.70
2023-02-22T19:16:28.529Z,9.70
2023-02-22T19:18:58.162Z,9.70
2023-02-22T19:21:28.432Z,9.70
2023-02-22T19:24:02.120Z,9.70
2023-02-22T19:26:32.160Z,9.70
2023-02-22T19:29:04.873Z,9.70
2023-02-22T19:31:34.697Z,9.70
2023-02-22T19:34:05.117Z,9.60
2023-02-22T19:36:33.845Z,9.60
2023-02-22T19:39:02.703Z,9.60
2023-02-22T19:41:32.600Z,9.60
2023-02-22T19:44:02.391Z,9.60
2023-02-22T19:46:31.183Z,9.60
2023-02-22T19:49:00.293Z,9.50
2023-02-22T19:51:30.664Z,9.50
2023-02-22T19:54:00.692Z,9.50
2023-02-22T19:56:30.995Z,9.40
2023-02-22T19:59:02.808Z,9.40
2023-02-22T20:01:34.089Z,9.30
2023-02-22T20:04:05.076Z,9.30
2023-02-22T20:06:35.920Z,9.20
2023-02-22T20:09:04.592Z,9.10
2023-02-22T20:11:33.079Z,9.10
2023-02-22T20:14:02.764Z,9.00
2023-02-22T20:16:31.127Z,9.00
2023-02-22T20:18:59.953Z,9.00
2023-02-22T20:21:31.848Z,8.90
2023-02-22T20:24:00.334Z,8.90
2023-02-22T20:26:30.384Z,8.90
2023-02-22T20:28:59.635Z,8.90
2023-02-22T20:31:29.716Z,8.80
2023-02-22T20:34:00.403Z,8.80
2023-02-22T20:36:30.477Z,8.80
2023-02-22T20:39:00.858Z,8.80
2023-02-22T20:41:30.777Z,8.80
2023-02-22T20:44:00.738Z,8.80
2023-02-22T20:46:32.525Z,8.80
2023-02-22T20:49:02.526Z,8.80
2023-02-22T20:51:31.499Z,8.70
2023-02-22T20:54:01.004Z,8.70
2023-02-22T20:56:30.956Z,8.70
2023-02-22T20:59:01.925Z,8.60
2023-02-22T21:01:32.488Z,8.60
2023-02-22T21:04:02.093Z,8.60
2023-02-22T21:06:31.338Z,8.50
2023-02-22T21:09:02.867Z,8.50
2023-02-22T21:11:32.667Z,8.50
2023-02-22T21:14:01.659Z,8.50
2023-02-22T21:16:33.407Z,8.50
2023-02-22T21:19:03.627Z,8.50
2023-02-22T21:21:33.013Z,8.40
2023-02-22T21:24:02.699Z,8.40
2023-02-22T21:26:33.345Z,8.40
2023-02-22T21:29:03.517Z,8.40
2023-02-22T21:31:34.906Z,8.40
2023-02-22T21:34:05.520Z,8.40
2023-02-22T21:36:33.938Z,8.40
2023-02-22T21:39:08.549Z,8.40
2023-02-22T21:41:39.719Z,8.40
2023-02-22T21:44:09.142Z,8.40
2023-02-22T21:46:38.791Z,8.40
2023-02-22T21:49:07.247Z,8.40
2023-02-22T21:51:37.746Z,8.40
2023-02-22T21:54:08.726Z,8.30
2023-02-22T21:56:39.964Z,8.30
2023-02-22T21:59:11.845Z,8.30
2023-02-22T22:01:47.268Z,8.30
2023-02-22T22:04:19.079Z,8.20
2023-02-22T22:06:49.199Z,8.20
2023-02-22T22:09:22.060Z,8.20
2023-02-22T22:11:53.385Z,8.20
2023-02-22T22:14:25.284Z,8.20
2023-02-22T22:16:58.594Z,8.20
2023-02-22T22:19:27.310Z,8.10
2023-02-22T22:21:55.691Z,8.10
2023-02-22T22:24:24.605Z,8.10
2023-02-22T22:26:54.917Z,8.10
2023-02-22T22:29:24.713Z,8.10
2023-02-22T22:31:54.541Z,8.10
2023-02-22T22:34:24.449Z,8.00
2023-02-22T22:36:52.945Z,8.00
2023-02-22T22:39:21.433Z,8.00
2023-02-22T22:41:49.864Z,8.00
2023-02-22T22:44:22.491Z,8.00
2023-02-22T22:46:53.950Z,7.90
2023-02-22T22:49:25.595Z,7.90
2023-02-22T22:51:54.582Z,7.90
2023-02-22T22:54:23.948Z,7.90
2023-02-22T22:56:52.354Z,7.90
2023-02-22T22:59:21.732Z,7.90
2023-02-22T23:01:52.226Z,7.80
2023-02-22T23:04:24.466Z,7.80
2023-02-22T23:06:55.578Z,7.80
2023-02-22T23:09:25.908Z,7.80
2023-02-22T23:11:56.698Z,7.70
2023-02-22T23:14:26.960Z,7.70
2023-02-22T23:17:03.476Z,7.70
2023-02-22T23:19:32.706Z,7.60
2023-02-22T23:22:05.276Z,7.60
2023-02-22T23:24:36.325Z,7.60
2023-02-22T23:27:07.234Z,7.50
2023-02-22T23:29:38.858Z,7.60
2023-02-22T23:32:07.841Z,7.50
2023-02-22T23:34:41.456Z,7.50
2023-02-22T23:37:14.319Z,7.50
2023-02-22T23:39:43.346Z,7.50
2023-02-22T23:42:11.728Z,7.40
2023-02-22T23:44:40.720Z,7.40
2023-02-22T23:47:09.962Z,7.50
2023-02-22T23:49:38.919Z,7.40
2023-02-22T23:52:09.775Z,7.40
2023-02-22T23:54:44.065Z,7.40
2023-02-22T23:57:12.675Z,7.40
2023-02-22T23:59:41.428Z,7.40
